Weather observations for the past three days for
Corvallis, Corvallis Municipal Airport
Imperial (Metric)
Date Time (pdt) Wind (mph) Vis. (mi.) Weather Sky Cond. Temperature (ºF) Relative Humidity Wind Chill (°F) Heat Index (°F) Pressure Precipitation (in)
Air Dwpt 6 hour altimeter (in) sea level (mb) 1 hr 3 hr 6 hr
Max. Min.
06 04:56 W 8 10.00 Overcast OVC009 53.1 50 54 51.1 89% 30.12 1020.4
06 03:56 W 6 10.00 Overcast OVC030 53.1 51.1 93% 30.1 1019.4
06 02:56 W 6 10.00 Mostly Cloudy BKN030 52 50 93% 30.09 1019.1
06 01:56 W 5 10.00 Fair CLR 52 50 93% 30.07 1018.5
06 00:56 NW 9 10.00 Fair CLR 53.1 51.1 93% 30.06 1018.3
05 23:56 NW 10 10.00 Fair CLR 53.1 51.1 93% 30.06 1018.1
05 22:56 NW 10 10.00 Fair CLR 54 51.1 68 54 90% 30.05 1017.9
05 21:56 NW 10 10.00 Fair CLR 55 51.1 87% 30.04 1017.5
05 20:56 NW 8 10.00 Fair CLR 57.9 52 81% 30.02 1016.8
05 19:56 SE 3 10.00 Fair CLR 61 54 78% 30 1016.0
05 18:56 E 5 10.00 Fair CLR 64.9 55 70% 29.99 1015.9
05 17:56 E 5 10.00 Fair CLR 64.9 54 68% 29.98 1015.6
05 16:56 Vrbl 5 10.00 Fair CLR 68 54 68 57.9 61% 29.99 1015.8
05 15:56 Vrbl 5 10.00 Mostly Cloudy BKN028 64.9 53.1 66% 30 1016.3
05 14:56 Vrbl 5 10.00 Overcast OVC028 64.9 54 68% 30.02 1016.8
05 13:56 NE 5 10.00 Overcast OVC024 63 52 68% 30.02 1017.0
05 12:56 Calm 10.00 Overcast BKN021 OVC026 61 52 72% 30.03 1017.2
05 11:56 Calm 10.00 Overcast OVC019 60.1 50 70% 30.04 1017.5
05 10:56 Calm 10.00 Overcast OVC019 57.9 50 57.9 53.1 75% 30.03 1017.2
05 09:56 Calm 10.00 Overcast OVC017 57 50 78% 30.02 1017.0
05 08:56 Calm 10.00 Overcast OVC019 55.9 48.9 77% 30.02 1016.8
05 07:56 Calm 10.00 Overcast OVC021 55 50 83% 30.02 1016.8
05 06:56 Calm 9.00 Overcast OVC021 54 50 87% 30 1016.3
05 05:56 Calm 10.00 Overcast OVC019 53.1 50 89% 29.99 1016.1
05 04:56 SW 3 10.00 Overcast OVC019 53.1 50 54 48.9 89% 29.99 1015.7
05 03:56 W 3 10.00 Overcast OVC019 54 50 87% 29.98 1015.6
05 02:56 SW 5 10.00 Overcast OVC019 53.1 50 89% 29.97 1015.3
05 01:56 SW 3 10.00 Overcast OVC019 53.1 50 89% 29.97 1015.2
05 00:56 Calm 10.00 Overcast OVC019 51.1 48.9 92% 29.97 1015.1
04 23:56 SW 5 10.00 Mostly Cloudy BKN019 50 48 93% 49 29.96 1014.9
04 22:56 NW 6 10.00 A Few Clouds FEW021 52 48.9 70 52 89% 29.96 1014.9
04 21:56 NW 9 10.00 Fair CLR 53.1 48.9 86% 29.95 1014.6
04 20:56 NW 13 10.00 Fair CLR 55 50 83% 29.92 1013.7
04 19:56 NW 15 G 21 10.00 Fair CLR 57.9 51.1 78% 29.9 1012.6
04 18:56 NW 16 G 21 10.00 Fair CLR 62.1 53.1 73% 29.88 1012.1
04 17:56 NW 13 10.00 Fair CLR 66 54 65% 29.89 1012.4
04 16:56 NW 12 10.00 Fair CLR 70 55 72 59 59% 29.89 1012.5
04 15:56 NW 8 10.00 Partly Cloudy SCT030 72 55.9 57% 29.9 1012.6
04 14:56 S 3 10.00 Fair CLR 69.1 55.9 63% 29.92 1013.5
04 13:56 SE 5 10.00 Fair CLR 66.9 55.9 68% 29.93 1014.0
04 12:56 Vrbl 3 10.00 Overcast OVC024 64.9 54 68% 29.94 1014.3
04 11:56 SE 5 10.00 Overcast OVC022 62.1 53.1 73% 29.95 1014.6
04 10:56 S 6 10.00 Overcast OVC020 59 52 59 48 78% 29.96 1014.9
04 09:56 Calm 10.00 Overcast OVC016 57 51.1 81% 29.97 1015.1
04 08:56 Calm 10.00 Overcast OVC016 55 51.1 87% 29.96 1014.9
04 07:56 Calm 10.00 Overcast OVC016 54 50 87% 29.95 1014.4
04 06:56 S 5 10.00 Overcast OVC016 51.1 48.9 92% 29.93 1013.6
04 05:56 SE 6 10.00 Mostly Cloudy BKN016 48.9 48 97% 47 29.91 1013.1
04 04:56 S 7 10.00 A Few Clouds FEW016 48.9 46.9 55.9 48 93% 46 29.91 1012.8
04 03:56 Calm 10.00 Fair CLR 51.1 48.9 92% 29.9 1012.7
04 02:56 SW 5 10.00 Fair CLR 51.1 48.9 92% 29.89 1012.3
04 01:56 NW 14 10.00 Fair CLR 53.1 50 89% 29.87 1011.6
04 00:56 NW 15 10.00 Fair CLR 53.1 50 89% 29.85 1011.2
03 23:56 NW 16 10.00 Fair CLR 54 50 87% 29.84 1010.8
03 22:56 NW 25 G 33 10.00 Fair and Breezy CLR 55.9 50 89.1 55.9 81% 29.8 1009.4
03 21:56 NW 22 G 28 10.00 Fair and Breezy CLR 63 51.1 65% 29.78 1008.7
03 20:56 NW 14 10.00 Fair CLR 70 53.1 55% 29.76 1007.9
03 19:56 W 7 10.00 Fair CLR 72 57.9 61% 29.75 1007.6
03 18:56 W 6 10.00 Fair CLR 80.1 57 45% 80 29.75 1007.6
03 17:56 NE 7 10.00 Fair CLR 84.9 52 32% 83 29.74 1007.3
03 16:56 NE 8 10.00 Fair CLR 88 53.1 88 70 30% 86 29.75 1007.5
03 15:56 NE 9 10.00 Fair CLR 87.1 55.9 35% 86 29.77 1008.2
03 14:56 E 6 10.00 Fair CLR 84.9 59 42% 85 29.8 1009.2
03 13:56 Vrbl 5 10.00 Fair CLR 81 62.1 53% 82 29.82 1009.9
03 12:56 S 5 10.00 Fair CLR 75.9 62.1 62% 78 29.84 1010.8
03 11:56 NE 3 10.00 Fair CLR 73.9 59 60% 29.86 1011.4
03 10:56 Calm 10.00 Fair CLR 70 57 70 45 64% 29.88 1012.0
03 09:56 NE 3 10.00 Fair CLR 64.9 55.9 73% 29.88 1012.3
03 08:56 Vrbl 3 10.00 Fair CLR 59 55 87% 29.89 1012.7
03 07:56 Calm 8.00 Fair CLR 55 53.1 93% 29.9 1012.6
03 06:56 Calm 10.00 Fair CLR 46.9 46 97% 29.89 1012.3
03 05:56 Calm 6.00 Fog/Mist CLR 45 45 100% 29.88 1012.2
Date Time (pdt) Wind (mph) Vis. (mi.) Weather Sky Cond. Air Dwpt Max. Min. Relative Humidity Wind Chill (°F) Heat Index (°F) altimeter (in) sea level (mb) 1 hr 3 hr 6 hr
6 hour
Temperature (ºF) Pressure Precipitation (in)